sensor_id;sensor_type;location;lat;lon;timestamp;pressure;altitude;pressure_sealevel;temperature;humidity
23616;BME280;11985;49.404;7.734;2023-03-22T00:01:39;97062.88;;;8.25;100.00
23616;BME280;11985;49.404;7.734;2023-03-22T00:06:40;97059.66;;;8.30;100.00
23616;BME280;11985;49.404;7.734;2023-03-22T00:11:43;97050.78;;;8.31;100.00
23616;BME280;11985;49.404;7.734;2023-03-22T00:16:45;97045.97;;;8.34;100.00
23616;BME280;11985;49.404;7.734;2023-03-22T00:21:48;97043.75;;;8.38;100.00
23616;BME280;11985;49.404;7.734;2023-03-22T00:26:51;97046.34;;;8.31;100.00
23616;BME280;11985;49.404;7.734;2023-03-22T00:31:53;97032.63;;;8.29;100.00
23616;BME280;11985;49.404;7.734;2023-03-22T00:36:55;97024.53;;;8.31;100.00
23616;BME280;11985;49.404;7.734;2023-03-22T00:41:58;97014.84;;;8.31;100.00
23616;BME280;11985;49.404;7.734;2023-03-22T00:46:59;97020.91;;;8.32;100.00
23616;BME280;11985;49.404;7.734;2023-03-22T00:52:01;97016.09;;;8.35;100.00
23616;BME280;11985;49.404;7.734;2023-03-22T00:57:03;97005.25;;;8.38;100.00
23616;BME280;11985;49.404;7.734;2023-03-22T01:02:05;96996.34;;;8.39;100.00
23616;BME280;11985;49.404;7.734;2023-03-22T01:07:07;96993.09;;;8.37;100.00
23616;BME280;11985;49.404;7.734;2023-03-22T01:12:10;96992.25;;;8.30;100.00
23616;BME280;11985;49.404;7.734;2023-03-22T01:17:12;96997.94;;;8.34;100.00
23616;BME280;11985;49.404;7.734;2023-03-22T01:22:13;96990.09;;;8.40;100.00
23616;BME280;11985;49.404;7.734;2023-03-22T01:27:16;96979.41;;;8.49;100.00
23616;BME280;11985;49.404;7.734;2023-03-22T01:32:18;96973.56;;;8.53;100.00
23616;BME280;11985;49.404;7.734;2023-03-22T01:37:19;96978.81;;;8.60;100.00
23616;BME280;11985;49.404;7.734;2023-03-22T01:42:26;96968.31;;;8.60;100.00
23616;BME280;11985;49.404;7.734;2023-03-22T01:47:27;96969.31;;;8.59;100.00
23616;BME280;11985;49.404;7.734;2023-03-22T01:52:29;96971.75;;;8.60;100.00
23616;BME280;11985;49.404;7.734;2023-03-22T01:57:32;96971.34;;;8.70;100.00
23616;BME280;11985;49.404;7.734;2023-03-22T02:02:37;96971.34;;;8.70;100.00
23616;BME280;11985;49.404;7.734;2023-03-22T02:07:40;96963.28;;;8.65;100.00
23616;BME280;11985;49.404;7.734;2023-03-22T02:12:53;96954.00;;;8.69;100.00
23616;BME280;11985;49.404;7.734;2023-03-22T02:18:08;96963.91;;;8.67;100.00
23616;BME280;11985;49.404;7.734;2023-03-22T02:28:48;96944.50;;;8.68;100.00
23616;BME280;11985;49.404;7.734;2023-03-22T02:34:02;96943.88;;;8.59;100.00
23616;BME280;11985;49.404;7.734;2023-03-22T02:39:15;96946.72;;;8.44;100.00
23616;BME280;11985;49.404;7.734;2023-03-22T02:44:24;96947.50;;;8.38;100.00
23616;BME280;11985;49.404;7.734;2023-03-22T02:49:33;96951.88;;;8.31;100.00
23616;BME280;11985;49.404;7.734;2023-03-22T02:54:41;96940.44;;;8.39;100.00
23616;BME280;11985;49.404;7.734;2023-03-22T02:59:46;96944.25;;;8.36;100.00
23616;BME280;11985;49.404;7.734;2023-03-22T03:04:51;96952.75;;;8.38;100.00
23616;BME280;11985;49.404;7.734;2023-03-22T03:09:56;96952.13;;;8.43;100.00
23616;BME280;11985;49.404;7.734;2023-03-22T03:14:57;96939.03;;;8.50;100.00
23616;BME280;11985;49.404;7.734;2023-03-22T03:20:11;96940.88;;;8.56;100.00
23616;BME280;11985;49.404;7.734;2023-03-22T03:25:22;96932.56;;;8.52;100.00
23616;BME280;11985;49.404;7.734;2023-03-22T03:30:30;96939.44;;;8.53;100.00
23616;BME280;11985;49.404;7.734;2023-03-22T03:35:37;96926.09;;;8.55;100.00
23616;BME280;11985;49.404;7.734;2023-03-22T03:40:44;96918.63;;;8.52;100.00
23616;BME280;11985;49.404;7.734;2023-03-22T03:45:48;96922.66;;;8.41;100.00
23616;BME280;11985;49.404;7.734;2023-03-22T03:50:51;96908.06;;;8.32;100.00
23616;BME280;11985;49.404;7.734;2023-03-22T03:55:55;96904.22;;;8.21;100.00
23616;BME280;11985;49.404;7.734;2023-03-22T04:00:57;96915.50;;;8.08;100.00
23616;BME280;11985;49.404;7.734;2023-03-22T04:05:59;96912.66;;;7.97;100.00
23616;BME280;11985;49.404;7.734;2023-03-22T04:11:01;96906.97;;;7.86;100.00
23616;BME280;11985;49.404;7.734;2023-03-22T04:16:04;96906.75;;;7.75;100.00
23616;BME280;11985;49.404;7.734;2023-03-22T04:21:06;96900.25;;;7.64;100.00
23616;BME280;11985;49.404;7.734;2023-03-22T04:26:09;96906.28;;;7.58;100.00
23616;BME280;11985;49.404;7.734;2023-03-22T04:31:10;96900.81;;;7.53;100.00
23616;BME280;11985;49.404;7.734;2023-03-22T04:36:12;96897.56;;;7.51;100.00
23616;BME280;11985;49.404;7.734;2023-03-22T04:41:17;96884.69;;;7.56;100.00
23616;BME280;11985;49.404;7.734;2023-03-22T04:46:19;96897.59;;;7.57;100.00
23616;BME280;11985;49.404;7.734;2023-03-22T04:51:21;96897.63;;;7.64;100.00
23616;BME280;11985;49.404;7.734;2023-03-22T04:56:24;96898.66;;;7.76;100.00
23616;BME280;11985;49.404;7.734;2023-03-22T05:01:26;96905.81;;;7.96;100.00
23616;BME280;11985;49.404;7.734;2023-03-22T05:06:27;96909.03;;;7.98;100.00
23616;BME280;11985;49.404;7.734;2023-03-22T05:11:33;96910.63;;;7.99;100.00
23616;BME280;11985;49.404;7.734;2023-03-22T05:16:35;96904.19;;;8.01;100.00
23616;BME280;11985;49.404;7.734;2023-03-22T05:21:40;96908.25;;;8.10;100.00
23616;BME280;11985;49.404;7.734;2023-03-22T05:26:44;96907.25;;;8.11;100.00
23616;BME280;11985;49.404;7.734;2023-03-22T05:31:46;96908.66;;;8.14;100.00
23616;BME280;11985;49.404;7.734;2023-03-22T05:36:49;96914.06;;;7.99;100.00
23616;BME280;11985;49.404;7.734;2023-03-22T05:41:52;96915.06;;;7.91;100.00
23616;BME280;11985;49.404;7.734;2023-03-22T05:46:53;96917.31;;;7.94;100.00
23616;BME280;11985;49.404;7.734;2023-03-22T05:51:55;96901.78;;;8.00;100.00
23616;BME280;11985;49.404;7.734;2023-03-22T05:56:58;96908.41;;;7.96;100.00
23616;BME280;11985;49.404;7.734;2023-03-22T06:01:59;96903.97;;;7.89;100.00
23616;BME280;11985;49.404;7.734;2023-03-22T06:07:01;96904.56;;;7.91;100.00
23616;BME280;11985;49.404;7.734;2023-03-22T06:12:04;96905.81;;;7.96;100.00
23616;BME280;11985;49.404;7.734;2023-03-22T06:17:07;96900.94;;;7.92;100.00
23616;BME280;11985;49.404;7.734;2023-03-22T06:22:09;96898.72;;;7.89;100.00
23616;BME280;11985;49.404;7.734;2023-03-22T06:27:12;96903.56;;;7.92;100.00
23616;BME280;11985;49.404;7.734;2023-03-22T06:32:14;96911.88;;;8.03;100.00
23616;BME280;11985;49.404;7.734;2023-03-22T06:37:15;96918.72;;;8.04;100.00
23616;BME280;11985;49.404;7.734;2023-03-22T06:42:18;96918.34;;;8.13;100.00
23616;BME280;11985;49.404;7.734;2023-03-22T06:47:20;96915.94;;;8.18;100.00
23616;BME280;11985;49.404;7.734;2023-03-22T06:52:21;96918.78;;;8.30;100.00
23616;BME280;11985;49.404;7.734;2023-03-22T06:57:24;96920.47;;;8.44;100.00
23616;BME280;11985;49.404;7.734;2023-03-22T07:02:26;96914.41;;;8.57;100.00
23616;BME280;11985;49.404;7.734;2023-03-22T07:07:27;96917.44;;;8.61;100.00
23616;BME280;11985;49.404;7.734;2023-03-22T07:12:30;96927.13;;;8.60;100.00
23616;BME280;11985;49.404;7.734;2023-03-22T07:17:32;96924.09;;;8.70;100.00
23616;BME280;11985;49.404;7.734;2023-03-22T07:22:33;96928.16;;;8.79;100.00
23616;BME280;11985;49.404;7.734;2023-03-22T07:27:36;96927.13;;;8.93;100.00
23616;BME280;11985;49.404;7.734;2023-03-22T07:32:38;96924.28;;;9.02;100.00
23616;BME280;11985;49.404;7.734;2023-03-22T07:37:40;96925.69;;;9.04;100.00
23616;BME280;11985;49.404;7.734;2023-03-22T07:42:43;96937.00;;;9.18;100.00
23616;BME280;11985;49.404;7.734;2023-03-22T07:47:45;96930.06;;;9.43;100.00
23616;BME280;11985;49.404;7.734;2023-03-22T07:52:47;96928.44;;;9.56;100.00
23616;BME280;11985;49.404;7.734;2023-03-22T07:57:50;96925.56;;;9.64;100.00
23616;BME280;11985;49.404;7.734;2023-03-22T08:02:51;96919.66;;;9.75;100.00
23616;BME280;11985;49.404;7.734;2023-03-22T08:07:53;96919.75;;;10.00;100.00
23616;BME280;11985;49.404;7.734;2023-03-22T08:12:57;96927.84;;;9.98;100.00
23616;BME280;11985;49.404;7.734;2023-03-22T08:17:58;96913.69;;;9.99;100.00
23616;BME280;11985;49.404;7.734;2023-03-22T08:23:00;96913.69;;;9.99;100.00
23616;BME280;11985;49.404;7.734;2023-03-22T08:28:03;96909.72;;;10.15;100.00
23616;BME280;11985;49.404;7.734;2023-03-22T08:33:05;96900.91;;;10.41;100.00
23616;BME280;11985;49.404;7.734;2023-03-22T08:38:07;96896.31;;;10.62;100.00
23616;BME280;11985;49.404;7.734;2023-03-22T08:43:09;96899.16;;;10.85;100.00
23616;BME280;11985;49.404;7.734;2023-03-22T08:48:11;96900.66;;;11.18;99.61
23616;BME280;11985;49.404;7.734;2023-03-22T08:53:12;96882.94;;;11.43;97.79
23616;BME280;11985;49.404;7.734;2023-03-22T08:58:16;96886.53;;;11.30;95.61
23616;BME280;11985;49.404;7.734;2023-03-22T09:03:19;96893.25;;;11.26;95.12
23616;BME280;11985;49.404;7.734;2023-03-22T09:08:22;96900.66;;;11.18;94.70
23616;BME280;11985;49.404;7.734;2023-03-22T09:13:25;96880.81;;;11.15;93.77
23616;BME280;11985;49.404;7.734;2023-03-22T09:18:26;96879.41;;;10.94;93.34
23616;BME280;11985;49.404;7.734;2023-03-22T09:23:28;96864.13;;;11.03;93.86
23616;BME280;11985;49.404;7.734;2023-03-22T09:28:33;96875.91;;;11.00;94.16
23616;BME280;11985;49.404;7.734;2023-03-22T09:33:36;96860.41;;;11.29;93.54
23616;BME280;11985;49.404;7.734;2023-03-22T09:38:38;96849.31;;;11.57;93.97
23616;BME280;11985;49.404;7.734;2023-03-22T09:43:45;96846.72;;;11.87;90.69
23616;BME280;11985;49.404;7.734;2023-03-22T09:48:49;96848.88;;;12.08;87.92
23616;BME280;11985;49.404;7.734;2023-03-22T09:53:52;96831.69;;;12.18;86.02
23616;BME280;11985;49.404;7.734;2023-03-22T09:58:58;96835.44;;;12.10;85.02
23616;BME280;11985;49.404;7.734;2023-03-22T10:04:25;96828.72;;;12.26;84.68
23616;BME280;11985;49.404;7.734;2023-03-22T10:09:34;96842.31;;;12.88;84.21
23616;BME280;11985;49.404;7.734;2023-03-22T10:14:46;96841.38;;;13.17;82.06
23616;BME280;11985;49.404;7.734;2023-03-22T10:19:53;96835.72;;;13.37;80.43
23616;BME280;11985;49.404;7.734;2023-03-22T10:24:56;96835.03;;;13.42;77.07
23616;BME280;11985;49.404;7.734;2023-03-22T10:30:03;96837.28;;;13.22;75.21
23616;BME280;11985;49.404;7.734;2023-03-22T10:35:12;96840.78;;;13.15;75.40
23616;BME280;11985;49.404;7.734;2023-03-22T10:40:17;96837.28;;;13.22;75.61
23616;BME280;11985;49.404;7.734;2023-03-22T10:45:22;96855.06;;;13.26;74.45
23616;BME280;11985;49.404;7.734;2023-03-22T10:50:26;96833.31;;;13.36;72.71
23616;BME280;11985;49.404;7.734;2023-03-22T10:55:30;96834.41;;;13.63;72.34
23616;BME280;11985;49.404;7.734;2023-03-22T11:00:33;96849.94;;;13.60;72.40
23616;BME280;11985;49.404;7.734;2023-03-22T11:05:34;96834.13;;;13.77;72.54
23616;BME280;11985;49.404;7.734;2023-03-22T11:10:36;96835.50;;;14.24;70.84
23616;BME280;11985;49.404;7.734;2023-03-22T11:15:41;96834.56;;;14.31;68.28
23616;BME280;11985;49.404;7.734;2023-03-22T11:20:55;96834.38;;;14.20;67.66
23616;BME280;11985;49.404;7.734;2023-03-22T11:26:02;96828.75;;;14.00;65.90
23616;BME280;11985;49.404;7.734;2023-03-22T11:31:09;96825.41;;;14.38;65.13
23616;BME280;11985;49.404;7.734;2023-03-22T11:36:17;96827.75;;;14.68;64.15
23616;BME280;11985;49.404;7.734;2023-03-22T11:41:21;96821.13;;;14.66;63.64
23616;BME280;11985;49.404;7.734;2023-03-22T11:46:24;96818.28;;;14.72;64.06
23616;BME280;11985;49.404;7.734;2023-03-22T11:51:28;96806.13;;;14.76;63.40
23616;BME280;11985;49.404;7.734;2023-03-22T11:56:33;96800.09;;;14.81;62.61
23616;BME280;11985;49.404;7.734;2023-03-22T12:01:40;96818.13;;;14.62;62.53
23616;BME280;11985;49.404;7.734;2023-03-22T12:06:44;96804.53;;;14.42;62.63
23616;BME280;11985;49.404;7.734;2023-03-22T12:11:48;96797.53;;;14.19;61.36
23616;BME280;11985;49.404;7.734;2023-03-22T12:16:55;96796.97;;;14.00;61.39
23616;BME280;11985;49.404;7.734;2023-03-22T12:21:58;96799.34;;;13.85;61.57
23616;BME280;11985;49.404;7.734;2023-03-22T12:27:16;96790.34;;;13.86;61.11
23616;BME280;11985;49.404;7.734;2023-03-22T12:32:28;96783.97;;;14.15;60.81
23616;BME280;11985;49.404;7.734;2023-03-22T12:37:43;96778.03;;;14.08;60.81
23616;BME280;11985;49.404;7.734;2023-03-22T12:42:53;96774.41;;;14.31;61.43
23616;BME280;11985;49.404;7.734;2023-03-22T12:48:04;96773.69;;;14.69;61.98
23616;BME280;11985;49.404;7.734;2023-03-22T12:53:11;96766.00;;;14.68;61.88
23616;BME280;11985;49.404;7.734;2023-03-22T12:58:17;96770.81;;;14.71;62.17
23616;BME280;11985;49.404;7.734;2023-03-22T13:03:25;96775.78;;;14.84;62.06
23616;BME280;11985;49.404;7.734;2023-03-22T13:09:02;96749.94;;;15.18;62.11
23616;BME280;11985;49.404;7.734;2023-03-22T13:19:58;96752.66;;;15.23;61.79
23616;BME280;11985;49.404;7.734;2023-03-22T13:25:11;96746.13;;;15.09;61.87
23616;BME280;11985;49.404;7.734;2023-03-22T13:30:22;96735.81;;;15.13;61.96
23616;BME280;11985;49.404;7.734;2023-03-22T13:35:36;96731.06;;;14.93;61.76
23616;BME280;11985;49.404;7.734;2023-03-22T13:40:48;96712.69;;;15.08;61.72
23616;BME280;11985;49.404;7.734;2023-03-22T13:46:08;96712.03;;;15.45;61.29
23616;BME280;11985;49.404;7.734;2023-03-22T13:51:14;96710.91;;;15.63;61.21
23616;BME280;11985;49.404;7.734;2023-03-22T13:56:30;96719.44;;;15.43;60.49
23616;BME280;11985;49.404;7.734;2023-03-22T14:01:36;96712.09;;;15.01;60.65
23616;BME280;11985;49.404;7.734;2023-03-22T14:06:49;96702.16;;;15.13;60.99
23616;BME280;11985;49.404;7.734;2023-03-22T14:11:56;96705.78;;;15.07;60.73
23616;BME280;11985;49.404;7.734;2023-03-22T14:17:02;96701.41;;;15.18;60.37
23616;BME280;11985;49.404;7.734;2023-03-22T14:22:11;96687.41;;;15.22;60.24
23616;BME280;11985;49.404;7.734;2023-03-22T14:27:17;96684.63;;;15.12;60.60
23616;BME280;11985;49.404;7.734;2023-03-22T14:32:21;96680.97;;;15.18;61.29
23616;BME280;11985;49.404;7.734;2023-03-22T14:37:28;96671.34;;;15.61;59.87
23616;BME280;11985;49.404;7.734;2023-03-22T14:42:32;96663.97;;;15.68;58.71
23616;BME280;11985;49.404;7.734;2023-03-22T14:47:40;96671.69;;;15.70;58.37
23616;BME280;11985;49.404;7.734;2023-03-22T14:52:46;96665.88;;;15.46;56.85
23616;BME280;11985;49.404;7.734;2023-03-22T14:57:53;96668.56;;;15.24;57.08
23616;BME280;11985;49.404;7.734;2023-03-22T15:02:58;96667.34;;;15.10;56.92
23616;BME280;11985;49.404;7.734;2023-03-22T15:08:05;96662.34;;;15.13;57.53
23616;BME280;11985;49.404;7.734;2023-03-22T15:13:10;96661.81;;;15.11;57.61
23616;BME280;11985;49.404;7.734;2023-03-22T15:18:13;96655.16;;;15.09;57.93
23616;BME280;11985;49.404;7.734;2023-03-22T15:23:17;96653.75;;;15.01;57.66
23616;BME280;11985;49.404;7.734;2023-03-22T15:28:21;96657.44;;;15.00;58.00
23616;BME280;11985;49.404;7.734;2023-03-22T15:33:24;96650.84;;;15.02;57.65
23616;BME280;11985;49.404;7.734;2023-03-22T15:38:30;96640.03;;;15.09;57.43
23616;BME280;11985;49.404;7.734;2023-03-22T15:43:38;96654.94;;;15.15;57.47
23616;BME280;11985;49.404;7.734;2023-03-22T15:48:41;96653.22;;;15.04;57.08
23616;BME280;11985;49.404;7.734;2023-03-22T15:53:44;96654.28;;;15.03;57.36
23616;BME280;11985;49.404;7.734;2023-03-22T15:58:54;96651.03;;;14.96;56.24
23616;BME280;11985;49.404;7.734;2023-03-22T16:03:58;96656.72;;;14.83;54.23
23616;BME280;11985;49.404;7.734;2023-03-22T16:09:00;96652.38;;;14.76;53.28
23616;BME280;11985;49.404;7.734;2023-03-22T16:14:04;96668.00;;;14.73;52.53
23616;BME280;11985;49.404;7.734;2023-03-22T16:19:08;96671.38;;;14.68;52.42
23616;BME280;11985;49.404;7.734;2023-03-22T16:24:10;96662.31;;;14.64;52.56
23616;BME280;11985;49.404;7.734;2023-03-22T16:29:14;96669.66;;;14.57;53.32
23616;BME280;11985;49.404;7.734;2023-03-22T16:34:15;96668.28;;;14.55;53.85
23616;BME280;11985;49.404;7.734;2023-03-22T16:39:18;96659.72;;;14.47;54.27
23616;BME280;11985;49.404;7.734;2023-03-22T16:44:21;96671.50;;;14.40;54.46
23616;BME280;11985;49.404;7.734;2023-03-22T16:49:23;96673.75;;;14.31;54.86
23616;BME280;11985;49.404;7.734;2023-03-22T16:54:24;96679.16;;;14.19;53.99
23616;BME280;11985;49.404;7.734;2023-03-22T16:59:27;96690.09;;;14.06;52.74
23616;BME280;11985;49.404;7.734;2023-03-22T17:04:29;96687.84;;;13.98;52.21
23616;BME280;11985;49.404;7.734;2023-03-22T17:09:30;96689.75;;;13.86;51.05
23616;BME280;11985;49.404;7.734;2023-03-22T17:14:33;96698.91;;;13.78;50.47
23616;BME280;11985;49.404;7.734;2023-03-22T17:19:35;96701.13;;;13.69;50.07
23616;BME280;11985;49.404;7.734;2023-03-22T17:24:37;96697.75;;;13.57;49.94
23616;BME280;11985;49.404;7.734;2023-03-22T17:29:41;96704.47;;;13.48;49.51
23616;BME280;11985;49.404;7.734;2023-03-22T17:34:43;96694.38;;;13.45;49.67
23616;BME280;11985;49.404;7.734;2023-03-22T17:39:45;96697.22;;;13.43;49.96
23616;BME280;11985;49.404;7.734;2023-03-22T17:44:49;96696.44;;;13.43;50.07
23616;BME280;11985;49.404;7.734;2023-03-22T17:49:50;96692.03;;;13.48;49.98
23616;BME280;11985;49.404;7.734;2023-03-22T17:54:52;96698.53;;;13.41;50.02
23616;BME280;11985;49.404;7.734;2023-03-22T17:59:56;96701.56;;;13.33;50.50
23616;BME280;11985;49.404;7.734;2023-03-22T18:04:59;96707.78;;;13.27;50.96
23616;BME280;11985;49.404;7.734;2023-03-22T18:10:00;96705.16;;;13.15;51.58
23616;BME280;11985;49.404;7.734;2023-03-22T18:15:09;96698.06;;;13.04;52.11
23616;BME280;11985;49.404;7.734;2023-03-22T18:20:14;96700.94;;;13.02;52.23
23616;BME280;11985;49.404;7.734;2023-03-22T18:25:19;96694.41;;;12.93;52.84
23616;BME280;11985;49.404;7.734;2023-03-22T18:30:24;96699.50;;;12.83;53.07
23616;BME280;11985;49.404;7.734;2023-03-22T18:35:26;96700.41;;;12.77;53.44
23616;BME280;11985;49.404;7.734;2023-03-22T18:40:27;96690.78;;;12.71;54.30
23616;BME280;11985;49.404;7.734;2023-03-22T18:45:30;96694.72;;;12.68;55.22
23616;BME280;11985;49.404;7.734;2023-03-22T18:50:34;96700.94;;;12.62;55.42
23616;BME280;11985;49.404;7.734;2023-03-22T18:55:35;96702.75;;;12.73;55.22
23616;BME280;11985;49.404;7.734;2023-03-22T19:00:38;96694.00;;;12.84;55.54
23616;BME280;11985;49.404;7.734;2023-03-22T19:05:40;96693.28;;;12.89;55.60
23616;BME280;11985;49.404;7.734;2023-03-22T19:10:42;96694.66;;;12.91;55.74
23616;BME280;11985;49.404;7.734;2023-03-22T19:15:48;96683.41;;;12.84;56.16
23616;BME280;11985;49.404;7.734;2023-03-22T19:20:50;96678.16;;;12.73;56.58
23616;BME280;11985;49.404;7.734;2023-03-22T19:25:52;96676.31;;;12.73;56.80
23616;BME280;11985;49.404;7.734;2023-03-22T19:30:55;96673.72;;;12.61;57.12
23616;BME280;11985;49.404;7.734;2023-03-22T19:35:57;96664.63;;;12.57;57.84
23616;BME280;11985;49.404;7.734;2023-03-22T19:40:59;96669.81;;;12.52;58.17
23616;BME280;11985;49.404;7.734;2023-03-22T19:46:03;96668.56;;;12.55;58.25
23616;BME280;11985;49.404;7.734;2023-03-22T19:51:05;96659.25;;;12.52;58.31
23616;BME280;11985;49.404;7.734;2023-03-22T19:56:10;96667.28;;;12.46;58.55
23616;BME280;11985;49.404;7.734;2023-03-22T20:01:13;96662.69;;;12.41;58.74
23616;BME280;11985;49.404;7.734;2023-03-22T20:06:15;96660.06;;;12.41;59.01
23616;BME280;11985;49.404;7.734;2023-03-22T20:11:16;96663.38;;;12.48;58.97
23616;BME280;11985;49.404;7.734;2023-03-22T20:16:19;96652.88;;;12.65;58.87
23616;BME280;11985;49.404;7.734;2023-03-22T20:21:21;96654.72;;;12.64;58.48
23616;BME280;11985;49.404;7.734;2023-03-22T20:26:23;96651.78;;;12.61;58.59
23616;BME280;11985;49.404;7.734;2023-03-22T20:31:26;96640.06;;;12.57;58.31
23616;BME280;11985;49.404;7.734;2023-03-22T20:36:28;96638.66;;;12.54;58.39
23616;BME280;11985;49.404;7.734;2023-03-22T20:41:31;96641.19;;;12.49;58.60
23616;BME280;11985;49.404;7.734;2023-03-22T20:46:35;96639.38;;;12.38;59.61
23616;BME280;11985;49.404;7.734;2023-03-22T20:51:36;96658.25;;;12.30;59.95
23616;BME280;11985;49.404;7.734;2023-03-22T20:56:38;96655.25;;;12.26;59.98
23616;BME280;11985;49.404;7.734;2023-03-22T21:01:41;96646.84;;;12.41;59.47
23616;BME280;11985;49.404;7.734;2023-03-22T21:06:42;96634.81;;;12.45;59.36
23616;BME280;11985;49.404;7.734;2023-03-22T21:11:44;96642.13;;;12.43;59.25
23616;BME280;11985;49.404;7.734;2023-03-22T21:16:47;96631.56;;;12.43;59.53
23616;BME280;11985;49.404;7.734;2023-03-22T21:21:49;96638.38;;;12.39;59.49
23616;BME280;11985;49.404;7.734;2023-03-22T21:26:50;96652.81;;;12.36;59.92
23616;BME280;11985;49.404;7.734;2023-03-22T21:31:53;96624.25;;;12.33;60.17
23616;BME280;11985;49.404;7.734;2023-03-22T21:36:56;96630.34;;;12.34;60.63
23616;BME280;11985;49.404;7.734;2023-03-22T21:41:58;96624.59;;;12.37;60.77
23616;BME280;11985;49.404;7.734;2023-03-22T21:47:03;96624.25;;;12.45;60.97
23616;BME280;11985;49.404;7.734;2023-03-22T21:52:05;96626.41;;;12.48;61.12
23616;BME280;11985;49.404;7.734;2023-03-22T21:57:06;96629.16;;;12.41;61.45
23616;BME280;11985;49.404;7.734;2023-03-22T22:02:13;96620.59;;;12.34;61.88
23616;BME280;11985;49.404;7.734;2023-03-22T22:07:16;96640.19;;;12.27;62.28
23616;BME280;11985;49.404;7.734;2023-03-22T22:12:18;96622.19;;;12.24;62.75
23616;BME280;11985;49.404;7.734;2023-03-22T22:17:21;96618.41;;;12.20;63.16
23616;BME280;11985;49.404;7.734;2023-03-22T22:22:23;96624.16;;;12.17;63.50
23616;BME280;11985;49.404;7.734;2023-03-22T22:27:25;96618.28;;;12.14;63.74
23616;BME280;11985;49.404;7.734;2023-03-22T22:32:28;96612.09;;;12.09;64.04
23616;BME280;11985;49.404;7.734;2023-03-22T22:37:29;96605.47;;;12.06;64.27
23616;BME280;11985;49.404;7.734;2023-03-22T22:42:31;96603.28;;;12.03;64.28
23616;BME280;11985;49.404;7.734;2023-03-22T22:47:34;96607.50;;;12.04;64.27
23616;BME280;11985;49.404;7.734;2023-03-22T22:52:37;96597.53;;;12.06;64.26
23616;BME280;11985;49.404;7.734;2023-03-22T22:57:39;96588.47;;;12.02;64.24
23616;BME280;11985;49.404;7.734;2023-03-22T23:02:42;96586.28;;;11.99;64.19
23616;BME280;11985;49.404;7.734;2023-03-22T23:07:43;96582.72;;;11.94;64.64
23616;BME280;11985;49.404;7.734;2023-03-22T23:12:45;96565.66;;;11.96;64.99
23616;BME280;11985;49.404;7.734;2023-03-22T23:17:48;96561.19;;;11.97;64.94
23616;BME280;11985;49.404;7.734;2023-03-22T23:22:50;96553.69;;;11.94;65.17
23616;BME280;11985;49.404;7.734;2023-03-22T23:27:52;96556.16;;;11.83;65.75
23616;BME280;11985;49.404;7.734;2023-03-22T23:32:57;96543.63;;;11.79;66.25
23616;BME280;11985;49.404;7.734;2023-03-22T23:37:59;96552.56;;;11.78;66.78
23616;BME280;11985;49.404;7.734;2023-03-22T23:43:00;96551.53;;;11.79;67.30
23616;BME280;11985;49.404;7.734;2023-03-22T23:48:04;96542.00;;;11.78;67.51
23616;BME280;11985;49.404;7.734;2023-03-22T23:53:05;96549.34;;;11.76;67.77
23616;BME280;11985;49.404;7.734;2023-03-22T23:58:07;96551.19;;;11.75;68.13
